Pope A F B, North Carolina
Current Conditions -  °F | °C
As of 6:58 PM on Saturday 25 Oct 2014 (Local Time) from KPOB Reporting Station
Clear Clear  
Wind Chill: 61°   Ceiling: Unl
Heat Index: 61°   Visibility: 10mi
Dew Point: 47°   Wind: 3mph
Humidity: 60%   Direction: 240°WSW
Pressure: 29.92"   Gusts: NA
Location:  35.1734°N, 79.0138°W
Report Text: KPOB 252258Z AUTO 24003KT 10SM CLR 16/08 A2992 RMK AO2 SLP135 T01630084
Loading
Personal Weather Stations






























Interactive Weather Map
Tropical Storm Tracking
New forecast layout! Learn more

10-Day Weather Forecast

Advertisements
Track Severe Weather on mobile